sensor_id;sensor_type;location;lat;lon;timestamp;P1;durP1;ratioP1;P2;durP2;ratioP2
78925;SDS011;68321;51.276;7.208;2023-04-01T00:02:02;1.60;;;0.93;;
78925;SDS011;68321;51.276;7.208;2023-04-01T00:04:27;2.90;;;2.00;;
78925;SDS011;68321;51.276;7.208;2023-04-01T00:06:53;2.60;;;1.10;;
78925;SDS011;68321;51.276;7.208;2023-04-01T00:09:18;2.33;;;1.25;;
78925;SDS011;68321;51.276;7.208;2023-04-01T00:11:44;3.35;;;1.33;;
78925;SDS011;68321;51.276;7.208;2023-04-01T00:14:10;1.98;;;1.10;;
78925;SDS011;68321;51.276;7.208;2023-04-01T00:16:36;4.03;;;1.75;;
78925;SDS011;68321;51.276;7.208;2023-04-01T00:19:02;2.72;;;1.08;;
78925;SDS011;68321;51.276;7.208;2023-04-01T00:21:27;1.63;;;1.00;;
78925;SDS011;68321;51.276;7.208;2023-04-01T00:23:53;5.25;;;1.20;;
78925;SDS011;68321;51.276;7.208;2023-04-01T00:26:19;1.90;;;1.25;;
78925;SDS011;68321;51.276;7.208;2023-04-01T00:28:46;1.13;;;0.90;;
78925;SDS011;68321;51.276;7.208;2023-04-01T00:31:12;1.42;;;1.15;;
78925;SDS011;68321;51.276;7.208;2023-04-01T00:33:38;1.33;;;0.90;;
78925;SDS011;68321;51.276;7.208;2023-04-01T00:36:05;1.48;;;0.93;;
78925;SDS011;68321;51.276;7.208;2023-04-01T00:38:38;6.32;;;1.48;;
78925;SDS011;68321;51.276;7.208;2023-04-01T00:41:04;2.08;;;1.17;;
78925;SDS011;68321;51.276;7.208;2023-04-01T00:43:30;2.95;;;1.10;;
78925;SDS011;68321;51.276;7.208;2023-04-01T00:45:55;1.90;;;1.30;;
78925;SDS011;68321;51.276;7.208;2023-04-01T00:48:39;1.67;;;0.93;;
78925;SDS011;68321;51.276;7.208;2023-04-01T00:51:09;3.65;;;0.85;;
78925;SDS011;68321;51.276;7.208;2023-04-01T00:53:43;3.58;;;1.33;;
78925;SDS011;68321;51.276;7.208;2023-04-01T00:56:15;2.42;;;1.10;;
78925;SDS011;68321;51.276;7.208;2023-04-01T00:58:44;1.48;;;1.38;;
78925;SDS011;68321;51.276;7.208;2023-04-01T01:01:12;3.20;;;1.17;;
78925;SDS011;68321;51.276;7.208;2023-04-01T01:03:37;1.42;;;0.90;;
78925;SDS011;68321;51.276;7.208;2023-04-01T01:06:18;0.97;;;0.70;;
78925;SDS011;68321;51.276;7.208;2023-04-01T01:11:43;2.45;;;1.20;;
78925;SDS011;68321;51.276;7.208;2023-04-01T01:16:45;2.58;;;0.80;;
78925;SDS011;68321;51.276;7.208;2023-04-01T01:22:05;2.42;;;1.05;;
78925;SDS011;68321;51.276;7.208;2023-04-01T01:24:50;1.30;;;1.00;;
78925;SDS011;68321;51.276;7.208;2023-04-01T01:27:23;2.90;;;1.02;;
78925;SDS011;68321;51.276;7.208;2023-04-01T01:30:00;2.88;;;1.00;;
78925;SDS011;68321;51.276;7.208;2023-04-01T01:32:55;4.25;;;1.27;;
78925;SDS011;68321;51.276;7.208;2023-04-01T01:38:06;3.60;;;1.40;;
78925;SDS011;68321;51.276;7.208;2023-04-01T01:40:34;1.27;;;1.17;;
78925;SDS011;68321;51.276;7.208;2023-04-01T01:43:03;1.17;;;0.98;;
78925;SDS011;68321;51.276;7.208;2023-04-01T01:45:30;1.60;;;1.13;;
78925;SDS011;68321;51.276;7.208;2023-04-01T01:47:57;2.17;;;1.20;;
78925;SDS011;68321;51.276;7.208;2023-04-01T01:50:23;1.10;;;1.00;;
78925;SDS011;68321;51.276;7.208;2023-04-01T01:52:51;1.25;;;1.08;;
78925;SDS011;68321;51.276;7.208;2023-04-01T01:55:23;1.20;;;1.00;;
78925;SDS011;68321;51.276;7.208;2023-04-01T01:58:22;1.33;;;1.00;;
78925;SDS011;68321;51.276;7.208;2023-04-01T02:00:51;3.00;;;1.50;;
78925;SDS011;68321;51.276;7.208;2023-04-01T02:03:19;1.83;;;1.17;;
78925;SDS011;68321;51.276;7.208;2023-04-01T02:05:46;2.72;;;2.17;;
78925;SDS011;68321;51.276;7.208;2023-04-01T02:08:13;2.67;;;1.30;;
78925;SDS011;68321;51.276;7.208;2023-04-01T02:10:48;3.78;;;1.30;;
78925;SDS011;68321;51.276;7.208;2023-04-01T02:16:08;1.13;;;1.00;;
78925;SDS011;68321;51.276;7.208;2023-04-01T02:18:37;1.20;;;1.10;;
78925;SDS011;68321;51.276;7.208;2023-04-01T02:21:03;1.55;;;1.20;;
78925;SDS011;68321;51.276;7.208;2023-04-01T02:23:30;2.45;;;1.45;;
78925;SDS011;68321;51.276;7.208;2023-04-01T02:25:58;1.60;;;1.08;;
78925;SDS011;68321;51.276;7.208;2023-04-01T02:28:23;5.03;;;1.30;;
78925;SDS011;68321;51.276;7.208;2023-04-01T02:30:49;2.45;;;1.52;;
78925;SDS011;68321;51.276;7.208;2023-04-01T02:33:15;1.70;;;0.80;;
78925;SDS011;68321;51.276;7.208;2023-04-01T02:35:41;2.75;;;1.40;;
78925;SDS011;68321;51.276;7.208;2023-04-01T02:38:07;2.42;;;1.35;;
78925;SDS011;68321;51.276;7.208;2023-04-01T02:40:43;2.33;;;1.25;;
78925;SDS011;68321;51.276;7.208;2023-04-01T02:43:12;3.08;;;1.42;;
78925;SDS011;68321;51.276;7.208;2023-04-01T02:45:38;2.28;;;1.67;;
78925;SDS011;68321;51.276;7.208;2023-04-01T02:48:03;1.98;;;1.15;;
78925;SDS011;68321;51.276;7.208;2023-04-01T02:50:29;3.03;;;0.93;;
78925;SDS011;68321;51.276;7.208;2023-04-01T02:52:54;2.00;;;1.73;;
78925;SDS011;68321;51.276;7.208;2023-04-01T02:55:19;1.83;;;1.10;;
78925;SDS011;68321;51.276;7.208;2023-04-01T02:57:45;1.33;;;1.10;;
78925;SDS011;68321;51.276;7.208;2023-04-01T03:00:10;3.33;;;1.00;;
78925;SDS011;68321;51.276;7.208;2023-04-01T03:02:37;3.40;;;1.30;;
78925;SDS011;68321;51.276;7.208;2023-04-01T03:05:04;1.35;;;0.93;;
78925;SDS011;68321;51.276;7.208;2023-04-01T03:07:30;1.55;;;1.20;;
78925;SDS011;68321;51.276;7.208;2023-04-01T03:09:55;2.93;;;1.30;;
78925;SDS011;68321;51.276;7.208;2023-04-01T03:12:21;1.55;;;1.10;;
78925;SDS011;68321;51.276;7.208;2023-04-01T03:14:46;1.50;;;1.10;;
78925;SDS011;68321;51.276;7.208;2023-04-01T03:17:11;2.38;;;1.23;;
78925;SDS011;68321;51.276;7.208;2023-04-01T03:19:37;1.07;;;0.97;;
78925;SDS011;68321;51.276;7.208;2023-04-01T03:22:02;2.20;;;1.10;;
78925;SDS011;68321;51.276;7.208;2023-04-01T03:24:27;4.63;;;0.93;;
78925;SDS011;68321;51.276;7.208;2023-04-01T03:26:53;1.70;;;1.05;;
78925;SDS011;68321;51.276;7.208;2023-04-01T03:29:18;1.60;;;1.27;;
78925;SDS011;68321;51.276;7.208;2023-04-01T03:31:44;0.73;;;0.52;;
78925;SDS011;68321;51.276;7.208;2023-04-01T03:34:10;0.80;;;0.80;;
78925;SDS011;68321;51.276;7.208;2023-04-01T03:36:35;2.43;;;1.00;;
78925;SDS011;68321;51.276;7.208;2023-04-01T03:39:00;1.23;;;1.05;;
78925;SDS011;68321;51.276;7.208;2023-04-01T03:41:26;1.57;;;1.10;;
78925;SDS011;68321;51.276;7.208;2023-04-01T03:43:52;1.45;;;1.15;;
78925;SDS011;68321;51.276;7.208;2023-04-01T03:46:18;3.95;;;1.48;;
78925;SDS011;68321;51.276;7.208;2023-04-01T03:48:44;1.88;;;1.77;;
78925;SDS011;68321;51.276;7.208;2023-04-01T03:51:10;2.80;;;1.88;;
78925;SDS011;68321;51.276;7.208;2023-04-01T03:53:35;4.43;;;1.40;;
78925;SDS011;68321;51.276;7.208;2023-04-01T03:56:07;1.83;;;1.13;;
78925;SDS011;68321;51.276;7.208;2023-04-01T03:58:33;1.85;;;1.50;;
78925;SDS011;68321;51.276;7.208;2023-04-01T04:00:59;1.70;;;1.38;;
78925;SDS011;68321;51.276;7.208;2023-04-01T04:03:25;2.63;;;1.55;;
78925;SDS011;68321;51.276;7.208;2023-04-01T04:05:51;2.03;;;1.55;;
78925;SDS011;68321;51.276;7.208;2023-04-01T04:08:16;4.28;;;1.65;;
78925;SDS011;68321;51.276;7.208;2023-04-01T04:10:42;1.90;;;1.20;;
78925;SDS011;68321;51.276;7.208;2023-04-01T04:13:07;2.42;;;1.65;;
78925;SDS011;68321;51.276;7.208;2023-04-01T04:15:33;2.35;;;1.58;;
78925;SDS011;68321;51.276;7.208;2023-04-01T04:17:58;2.00;;;1.70;;
78925;SDS011;68321;51.276;7.208;2023-04-01T04:20:24;1.93;;;1.20;;
78925;SDS011;68321;51.276;7.208;2023-04-01T04:22:49;2.50;;;1.65;;
78925;SDS011;68321;51.276;7.208;2023-04-01T04:25:15;2.67;;;1.60;;
78925;SDS011;68321;51.276;7.208;2023-04-01T04:27:40;2.85;;;2.03;;
78925;SDS011;68321;51.276;7.208;2023-04-01T04:30:06;1.80;;;1.27;;
78925;SDS011;68321;51.276;7.208;2023-04-01T04:32:32;1.98;;;1.40;;
78925;SDS011;68321;51.276;7.208;2023-04-01T04:34:57;2.43;;;1.20;;
78925;SDS011;68321;51.276;7.208;2023-04-01T04:37:23;1.70;;;1.40;;
78925;SDS011;68321;51.276;7.208;2023-04-01T04:39:48;1.40;;;1.13;;
78925;SDS011;68321;51.276;7.208;2023-04-01T04:42:13;2.00;;;1.07;;
78925;SDS011;68321;51.276;7.208;2023-04-01T04:44:39;2.00;;;1.38;;
78925;SDS011;68321;51.276;7.208;2023-04-01T04:47:04;1.25;;;1.15;;
78925;SDS011;68321;51.276;7.208;2023-04-01T04:49:30;5.95;;;1.63;;
78925;SDS011;68321;51.276;7.208;2023-04-01T04:51:55;1.70;;;1.20;;
78925;SDS011;68321;51.276;7.208;2023-04-01T04:54:21;1.67;;;1.57;;
78925;SDS011;68321;51.276;7.208;2023-04-01T04:56:46;1.85;;;1.38;;
78925;SDS011;68321;51.276;7.208;2023-04-01T04:59:11;1.98;;;1.42;;
78925;SDS011;68321;51.276;7.208;2023-04-01T05:01:37;1.60;;;1.40;;
78925;SDS011;68321;51.276;7.208;2023-04-01T05:04:03;2.10;;;1.33;;
78925;SDS011;68321;51.276;7.208;2023-04-01T05:06:28;2.53;;;1.45;;
78925;SDS011;68321;51.276;7.208;2023-04-01T05:08:57;4.30;;;1.80;;
78925;SDS011;68321;51.276;7.208;2023-04-01T05:11:22;3.30;;;1.88;;
78925;SDS011;68321;51.276;7.208;2023-04-01T05:13:48;1.95;;;1.38;;
78925;SDS011;68321;51.276;7.208;2023-04-01T05:16:14;2.90;;;1.20;;
78925;SDS011;68321;51.276;7.208;2023-04-01T05:18:41;2.13;;;1.45;;
78925;SDS011;68321;51.276;7.208;2023-04-01T05:21:08;1.25;;;1.00;;
78925;SDS011;68321;51.276;7.208;2023-04-01T05:23:34;1.83;;;1.27;;
78925;SDS011;68321;51.276;7.208;2023-04-01T05:26:04;1.88;;;1.50;;
78925;SDS011;68321;51.276;7.208;2023-04-01T05:28:30;2.45;;;1.92;;
78925;SDS011;68321;51.276;7.208;2023-04-01T05:30:58;1.50;;;1.25;;
78925;SDS011;68321;51.276;7.208;2023-04-01T05:33:24;1.73;;;1.45;;
78925;SDS011;68321;51.276;7.208;2023-04-01T05:35:50;1.50;;;1.00;;
78925;SDS011;68321;51.276;7.208;2023-04-01T05:38:15;1.13;;;1.00;;
78925;SDS011;68321;51.276;7.208;2023-04-01T05:40:40;1.50;;;1.30;;
78925;SDS011;68321;51.276;7.208;2023-04-01T05:43:05;2.17;;;1.47;;
78925;SDS011;68321;51.276;7.208;2023-04-01T05:45:31;2.00;;;1.33;;
78925;SDS011;68321;51.276;7.208;2023-04-01T05:47:56;1.43;;;1.33;;
78925;SDS011;68321;51.276;7.208;2023-04-01T05:50:22;2.13;;;1.37;;
78925;SDS011;68321;51.276;7.208;2023-04-01T05:52:47;1.63;;;1.42;;
78925;SDS011;68321;51.276;7.208;2023-04-01T05:55:12;1.57;;;1.10;;
78925;SDS011;68321;51.276;7.208;2023-04-01T05:57:38;1.10;;;1.00;;
78925;SDS011;68321;51.276;7.208;2023-04-01T06:00:03;0.83;;;0.63;;
78925;SDS011;68321;51.276;7.208;2023-04-01T06:02:29;1.58;;;1.38;;
78925;SDS011;68321;51.276;7.208;2023-04-01T06:05:37;1.20;;;1.00;;
78925;SDS011;68321;51.276;7.208;2023-04-01T06:07:48;1.70;;;1.33;;
78925;SDS011;68321;51.276;7.208;2023-04-01T06:10:14;2.63;;;1.35;;
78925;SDS011;68321;51.276;7.208;2023-04-01T06:13:05;1.30;;;1.08;;
78925;SDS011;68321;51.276;7.208;2023-04-01T06:21:50;1.10;;;0.98;;
78925;SDS011;68321;51.276;7.208;2023-04-01T06:32:55;1.38;;;1.08;;
78925;SDS011;68321;51.276;7.208;2023-04-01T06:35:26;2.47;;;1.65;;
78925;SDS011;68321;51.276;7.208;2023-04-01T06:38:11;1.75;;;1.45;;
78925;SDS011;68321;51.276;7.208;2023-04-01T06:49:24;1.77;;;1.27;;
78925;SDS011;68321;51.276;7.208;2023-04-01T06:52:17;2.10;;;1.58;;
78925;SDS011;68321;51.276;7.208;2023-04-01T06:54:55;2.10;;;1.60;;
78925;SDS011;68321;51.276;7.208;2023-04-01T06:57:34;1.80;;;1.33;;
78925;SDS011;68321;51.276;7.208;2023-04-01T07:00:11;2.47;;;1.65;;
78925;SDS011;68321;51.276;7.208;2023-04-01T07:02:50;1.73;;;1.33;;
78925;SDS011;68321;51.276;7.208;2023-04-01T07:05:20;2.30;;;1.55;;
78925;SDS011;68321;51.276;7.208;2023-04-01T07:07:48;2.85;;;1.80;;
78925;SDS011;68321;51.276;7.208;2023-04-01T07:10:17;2.65;;;2.13;;
78925;SDS011;68321;51.276;7.208;2023-04-01T07:15:19;1.73;;;1.42;;
78925;SDS011;68321;51.276;7.208;2023-04-01T07:17:47;2.55;;;1.63;;
78925;SDS011;68321;51.276;7.208;2023-04-01T07:20:20;1.88;;;1.30;;
78925;SDS011;68321;51.276;7.208;2023-04-01T07:22:49;1.98;;;1.67;;
78925;SDS011;68321;51.276;7.208;2023-04-01T07:25:18;5.70;;;3.35;;
78925;SDS011;68321;51.276;7.208;2023-04-01T07:27:45;1.75;;;1.40;;
78925;SDS011;68321;51.276;7.208;2023-04-01T07:30:15;3.30;;;1.90;;
78925;SDS011;68321;51.276;7.208;2023-04-01T07:32:47;2.97;;;2.00;;
78925;SDS011;68321;51.276;7.208;2023-04-01T07:46:22;2.60;;;1.83;;
78925;SDS011;68321;51.276;7.208;2023-04-01T07:49:23;3.45;;;1.70;;
78925;SDS011;68321;51.276;7.208;2023-04-01T07:54:58;1.83;;;1.52;;
78925;SDS011;68321;51.276;7.208;2023-04-01T07:57:30;2.25;;;1.52;;
78925;SDS011;68321;51.276;7.208;2023-04-01T08:00:06;3.92;;;2.33;;
78925;SDS011;68321;51.276;7.208;2023-04-01T08:05:28;3.78;;;1.85;;
78925;SDS011;68321;51.276;7.208;2023-04-01T08:08:08;3.08;;;2.17;;
78925;SDS011;68321;51.276;7.208;2023-04-01T08:13:12;4.00;;;2.10;;
78925;SDS011;68321;51.276;7.208;2023-04-01T08:21:03;3.35;;;2.03;;
78925;SDS011;68321;51.276;7.208;2023-04-01T08:23:32;1.60;;;1.25;;
78925;SDS011;68321;51.276;7.208;2023-04-01T08:26:02;2.00;;;1.40;;
78925;SDS011;68321;51.276;7.208;2023-04-01T08:28:46;1.48;;;1.27;;
78925;SDS011;68321;51.276;7.208;2023-04-01T08:31:33;2.22;;;1.00;;
78925;SDS011;68321;51.276;7.208;2023-04-01T08:34:03;1.92;;;1.40;;
78925;SDS011;68321;51.276;7.208;2023-04-01T08:39:06;3.38;;;1.90;;
78925;SDS011;68321;51.276;7.208;2023-04-01T08:50:36;3.90;;;2.70;;
78925;SDS011;68321;51.276;7.208;2023-04-01T08:52:52;1.85;;;1.52;;
78925;SDS011;68321;51.276;7.208;2023-04-01T08:55:43;2.55;;;1.85;;
78925;SDS011;68321;51.276;7.208;2023-04-01T08:58:23;2.80;;;2.22;;
78925;SDS011;68321;51.276;7.208;2023-04-01T09:23:19;2.95;;;2.42;;
78925;SDS011;68321;51.276;7.208;2023-04-01T09:34:52;2.55;;;1.33;;
78925;SDS011;68321;51.276;7.208;2023-04-01T09:37:26;3.38;;;2.63;;
78925;SDS011;68321;51.276;7.208;2023-04-01T09:45:18;1.85;;;1.67;;
78925;SDS011;68321;51.276;7.208;2023-04-01T09:54:04;4.25;;;3.15;;
78925;SDS011;68321;51.276;7.208;2023-04-01T10:00:06;4.80;;;3.95;;
78925;SDS011;68321;51.276;7.208;2023-04-01T10:44:41;7.38;;;5.40;;
78925;SDS011;68321;51.276;7.208;2023-04-01T10:53:12;6.75;;;5.90;;
78925;SDS011;68321;51.276;7.208;2023-04-01T11:01:57;7.20;;;4.50;;
78925;SDS011;68321;51.276;7.208;2023-04-01T11:23:40;3.95;;;3.30;;
78925;SDS011;68321;51.276;7.208;2023-04-01T11:42:37;2.50;;;2.15;;
78925;SDS011;68321;51.276;7.208;2023-04-01T11:45:20;3.47;;;2.38;;
78925;SDS011;68321;51.276;7.208;2023-04-01T11:47:55;4.57;;;2.58;;
78925;SDS011;68321;51.276;7.208;2023-04-01T12:02:14;4.53;;;2.97;;
78925;SDS011;68321;51.276;7.208;2023-04-01T12:10:15;6.28;;;3.83;;
78925;SDS011;68321;51.276;7.208;2023-04-01T12:12:49;5.90;;;3.40;;
78925;SDS011;68321;51.276;7.208;2023-04-01T12:15:29;3.85;;;3.10;;
78925;SDS011;68321;51.276;7.208;2023-04-01T12:20:50;5.07;;;3.75;;
78925;SDS011;68321;51.276;7.208;2023-04-01T12:26:15;3.70;;;2.60;;
78925;SDS011;68321;51.276;7.208;2023-04-01T12:40:46;3.50;;;2.80;;
78925;SDS011;68321;51.276;7.208;2023-04-01T12:45:49;4.30;;;3.38;;
78925;SDS011;68321;51.276;7.208;2023-04-01T12:56:51;5.80;;;4.70;;
78925;SDS011;68321;51.276;7.208;2023-04-01T13:15:54;5.45;;;4.15;;
78925;SDS011;68321;51.276;7.208;2023-04-01T13:21:01;6.95;;;5.60;;
78925;SDS011;68321;51.276;7.208;2023-04-01T13:31:24;8.00;;;5.47;;
78925;SDS011;68321;51.276;7.208;2023-04-01T13:34:13;9.70;;;6.35;;
78925;SDS011;68321;51.276;7.208;2023-04-01T13:52:44;6.85;;;5.55;;
78925;SDS011;68321;51.276;7.208;2023-04-01T13:58:38;8.07;;;6.10;;
78925;SDS011;68321;51.276;7.208;2023-04-01T14:06:49;8.05;;;5.38;;
78925;SDS011;68321;51.276;7.208;2023-04-01T14:38:47;8.05;;;5.60;;
78925;SDS011;68321;51.276;7.208;2023-04-01T14:43:58;11.93;;;7.68;;
78925;SDS011;68321;51.276;7.208;2023-04-01T14:46:36;8.82;;;7.00;;
78925;SDS011;68321;51.276;7.208;2023-04-01T14:52:06;6.60;;;5.20;;
78925;SDS011;68321;51.276;7.208;2023-04-01T14:54:36;6.45;;;5.30;;
78925;SDS011;68321;51.276;7.208;2023-04-01T14:57:13;6.28;;;5.57;;
78925;SDS011;68321;51.276;7.208;2023-04-01T14:59:41;6.95;;;5.97;;
78925;SDS011;68321;51.276;7.208;2023-04-01T15:04:54;9.95;;;7.07;;
78925;SDS011;68321;51.276;7.208;2023-04-01T15:18:15;8.35;;;5.90;;
78925;SDS011;68321;51.276;7.208;2023-04-01T15:32:01;8.90;;;5.82;;
78925;SDS011;68321;51.276;7.208;2023-04-01T15:34:45;8.40;;;6.30;;
78925;SDS011;68321;51.276;7.208;2023-04-01T15:49:20;5.85;;;4.82;;
78925;SDS011;68321;51.276;7.208;2023-04-01T15:51:58;4.78;;;3.60;;
78925;SDS011;68321;51.276;7.208;2023-04-01T15:54:47;6.10;;;4.03;;
78925;SDS011;68321;51.276;7.208;2023-04-01T16:00:25;4.75;;;3.22;;
78925;SDS011;68321;51.276;7.208;2023-04-01T16:14:05;4.38;;;3.30;;
78925;SDS011;68321;51.276;7.208;2023-04-01T16:16:44;2.85;;;2.33;;
78925;SDS011;68321;51.276;7.208;2023-04-01T16:21:48;4.15;;;2.90;;
78925;SDS011;68321;51.276;7.208;2023-04-01T16:27:24;3.92;;;2.88;;
78925;SDS011;68321;51.276;7.208;2023-04-01T16:29:53;5.15;;;4.35;;
78925;SDS011;68321;51.276;7.208;2023-04-01T16:35:22;5.63;;;2.88;;
78925;SDS011;68321;51.276;7.208;2023-04-01T16:37:49;5.20;;;3.50;;
78925;SDS011;68321;51.276;7.208;2023-04-01T16:40:23;5.55;;;3.78;;
78925;SDS011;68321;51.276;7.208;2023-04-01T16:43:13;6.88;;;4.70;;
78925;SDS011;68321;51.276;7.208;2023-04-01T16:45:43;6.25;;;4.72;;
78925;SDS011;68321;51.276;7.208;2023-04-01T16:48:23;6.95;;;4.85;;
78925;SDS011;68321;51.276;7.208;2023-04-01T16:51:00;7.78;;;5.43;;
78925;SDS011;68321;51.276;7.208;2023-04-01T16:53:43;5.88;;;4.53;;
78925;SDS011;68321;51.276;7.208;2023-04-01T16:56:11;7.97;;;5.03;;
78925;SDS011;68321;51.276;7.208;2023-04-01T17:03:58;5.72;;;4.22;;
78925;SDS011;68321;51.276;7.208;2023-04-01T17:25:42;5.88;;;4.68;;
78925;SDS011;68321;51.276;7.208;2023-04-01T17:28:33;4.68;;;3.55;;
78925;SDS011;68321;51.276;7.208;2023-04-01T17:33:42;5.72;;;4.25;;
78925;SDS011;68321;51.276;7.208;2023-04-01T17:39:04;7.05;;;4.50;;
78925;SDS011;68321;51.276;7.208;2023-04-01T17:41:51;5.88;;;3.85;;
78925;SDS011;68321;51.276;7.208;2023-04-01T17:47:04;5.85;;;4.60;;
78925;SDS011;68321;51.276;7.208;2023-04-01T17:52:46;7.97;;;4.85;;
78925;SDS011;68321;51.276;7.208;2023-04-01T18:03:36;5.90;;;4.90;;
78925;SDS011;68321;51.276;7.208;2023-04-01T18:20:02;8.05;;;4.35;;
78925;SDS011;68321;51.276;7.208;2023-04-01T18:22:43;7.22;;;4.93;;
78925;SDS011;68321;51.276;7.208;2023-04-01T18:31:04;9.10;;;4.97;;
78925;SDS011;68321;51.276;7.208;2023-04-01T18:33:41;5.32;;;4.20;;
78925;SDS011;68321;51.276;7.208;2023-04-01T18:38:53;7.78;;;5.28;;
78925;SDS011;68321;51.276;7.208;2023-04-01T18:41:31;9.00;;;5.38;;
78925;SDS011;68321;51.276;7.208;2023-04-01T18:44:10;7.18;;;5.28;;
78925;SDS011;68321;51.276;7.208;2023-04-01T18:46:45;8.52;;;5.68;;
78925;SDS011;68321;51.276;7.208;2023-04-01T18:49:21;7.47;;;5.82;;
78925;SDS011;68321;51.276;7.208;2023-04-01T18:51:59;7.82;;;5.65;;
78925;SDS011;68321;51.276;7.208;2023-04-01T18:55:18;8.32;;;5.82;;
78925;SDS011;68321;51.276;7.208;2023-04-01T18:57:27;12.25;;;6.03;;
78925;SDS011;68321;51.276;7.208;2023-04-01T19:00:08;6.45;;;4.72;;
78925;SDS011;68321;51.276;7.208;2023-04-01T19:02:45;8.73;;;5.80;;
78925;SDS011;68321;51.276;7.208;2023-04-01T19:05:33;8.43;;;6.53;;
78925;SDS011;68321;51.276;7.208;2023-04-01T19:16:17;7.95;;;5.47;;
78925;SDS011;68321;51.276;7.208;2023-04-01T19:21:42;6.32;;;4.57;;
78925;SDS011;68321;51.276;7.208;2023-04-01T19:26:58;5.95;;;4.63;;
78925;SDS011;68321;51.276;7.208;2023-04-01T19:45:23;8.02;;;5.68;;
78925;SDS011;68321;51.276;7.208;2023-04-01T19:50:49;5.97;;;3.95;;
78925;SDS011;68321;51.276;7.208;2023-04-01T19:58:45;5.82;;;4.88;;
78925;SDS011;68321;51.276;7.208;2023-04-01T20:01:22;4.88;;;4.28;;
78925;SDS011;68321;51.276;7.208;2023-04-01T20:04:11;6.88;;;5.15;;
78925;SDS011;68321;51.276;7.208;2023-04-01T20:06:44;6.95;;;4.60;;
78925;SDS011;68321;51.276;7.208;2023-04-01T20:09:32;5.85;;;4.30;;
78925;SDS011;68321;51.276;7.208;2023-04-01T20:19:39;7.85;;;5.22;;
78925;SDS011;68321;51.276;7.208;2023-04-01T20:24:59;8.25;;;5.45;;
78925;SDS011;68321;51.276;7.208;2023-04-01T20:27:35;8.88;;;6.18;;
78925;SDS011;68321;51.276;7.208;2023-04-01T20:44:03;6.10;;;5.22;;
78925;SDS011;68321;51.276;7.208;2023-04-01T20:46:46;5.57;;;4.75;;
78925;SDS011;68321;51.276;7.208;2023-04-01T20:51:59;5.13;;;3.55;;
78925;SDS011;68321;51.276;7.208;2023-04-01T20:54:33;6.20;;;4.32;;
78925;SDS011;68321;51.276;7.208;2023-04-01T20:57:09;3.90;;;3.08;;
78925;SDS011;68321;51.276;7.208;2023-04-01T20:59:41;5.28;;;3.83;;
78925;SDS011;68321;51.276;7.208;2023-04-01T21:24:36;5.38;;;4.13;;
78925;SDS011;68321;51.276;7.208;2023-04-01T21:30:11;7.40;;;4.78;;
78925;SDS011;68321;51.276;7.208;2023-04-01T21:41:20;4.10;;;3.22;;
78925;SDS011;68321;51.276;7.208;2023-04-01T21:43:58;5.63;;;4.30;;
78925;SDS011;68321;51.276;7.208;2023-04-01T21:46:46;3.70;;;2.80;;
78925;SDS011;68321;51.276;7.208;2023-04-01T21:49:43;3.50;;;2.58;;
78925;SDS011;68321;51.276;7.208;2023-04-01T21:55:10;5.55;;;3.38;;
78925;SDS011;68321;51.276;7.208;2023-04-01T21:57:57;2.80;;;2.05;;
78925;SDS011;68321;51.276;7.208;2023-04-01T22:00:30;4.32;;;2.33;;
78925;SDS011;68321;51.276;7.208;2023-04-01T22:06:01;2.70;;;1.90;;
78925;SDS011;68321;51.276;7.208;2023-04-01T22:14:07;5.38;;;2.10;;
78925;SDS011;68321;51.276;7.208;2023-04-01T22:16:45;3.00;;;2.38;;
78925;SDS011;68321;51.276;7.208;2023-04-01T22:22:01;2.83;;;2.25;;
78925;SDS011;68321;51.276;7.208;2023-04-01T22:24:34;3.38;;;2.25;;
78925;SDS011;68321;51.276;7.208;2023-04-01T22:29:51;2.60;;;1.73;;
78925;SDS011;68321;51.276;7.208;2023-04-01T22:32:24;2.22;;;1.75;;
78925;SDS011;68321;51.276;7.208;2023-04-01T22:35:00;2.33;;;1.80;;
78925;SDS011;68321;51.276;7.208;2023-04-01T22:37:38;2.13;;;1.70;;
78925;SDS011;68321;51.276;7.208;2023-04-01T22:40:19;2.47;;;2.03;;
78925;SDS011;68321;51.276;7.208;2023-04-01T22:43:01;2.60;;;1.88;;
78925;SDS011;68321;51.276;7.208;2023-04-01T22:48:12;3.20;;;2.10;;
78925;SDS011;68321;51.276;7.208;2023-04-01T22:53:38;3.17;;;2.42;;
78925;SDS011;68321;51.276;7.208;2023-04-01T22:56:11;2.92;;;2.13;;
78925;SDS011;68321;51.276;7.208;2023-04-01T22:58:42;2.38;;;1.90;;
78925;SDS011;68321;51.276;7.208;2023-04-01T23:01:16;3.17;;;2.35;;
78925;SDS011;68321;51.276;7.208;2023-04-01T23:03:46;2.60;;;1.95;;
78925;SDS011;68321;51.276;7.208;2023-04-01T23:06:19;4.15;;;2.58;;
78925;SDS011;68321;51.276;7.208;2023-04-01T23:09:07;2.80;;;2.35;;
78925;SDS011;68321;51.276;7.208;2023-04-01T23:11:53;2.10;;;1.88;;
78925;SDS011;68321;51.276;7.208;2023-04-01T23:16:51;2.50;;;2.25;;
78925;SDS011;68321;51.276;7.208;2023-04-01T23:28:31;2.33;;;2.13;;
78925;SDS011;68321;51.276;7.208;2023-04-01T23:38:31;2.80;;;2.38;;
78925;SDS011;68321;51.276;7.208;2023-04-01T23:40:59;3.45;;;2.45;;
78925;SDS011;68321;51.276;7.208;2023-04-01T23:43:25;3.28;;;2.33;;
78925;SDS011;68321;51.276;7.208;2023-04-01T23:45:53;3.13;;;2.40;;
78925;SDS011;68321;51.276;7.208;2023-04-01T23:48:19;2.67;;;1.98;;
78925;SDS011;68321;51.276;7.208;2023-04-01T23:50:51;3.53;;;2.25;;
78925;SDS011;68321;51.276;7.208;2023-04-01T23:53:18;1.80;;;1.52;;
78925;SDS011;68321;51.276;7.208;2023-04-01T23:55:46;3.05;;;2.20;;
78925;SDS011;68321;51.276;7.208;2023-04-01T23:58:17;2.50;;;1.80;;
